sensor_id;sensor_type;location;lat;lon;timestamp;P1;durP1;ratioP1;P2;durP2;ratioP2
22040;SDS011;11184;52.444;13.578;2023-08-31T00:02:38;3.65;;;3.35;;
22040;SDS011;11184;52.444;13.578;2023-08-31T00:05:24;3.15;;;2.65;;
22040;SDS011;11184;52.444;13.578;2023-08-31T00:08:11;3.63;;;3.17;;
22040;SDS011;11184;52.444;13.578;2023-08-31T00:10:56;3.67;;;3.47;;
22040;SDS011;11184;52.444;13.578;2023-08-31T00:13:41;3.85;;;3.55;;
22040;SDS011;11184;52.444;13.578;2023-08-31T00:16:26;6.28;;;3.90;;
22040;SDS011;11184;52.444;13.578;2023-08-31T00:19:11;3.95;;;2.85;;
22040;SDS011;11184;52.444;13.578;2023-08-31T00:21:57;5.00;;;4.43;;
22040;SDS011;11184;52.444;13.578;2023-08-31T00:24:41;3.58;;;3.10;;
22040;SDS011;11184;52.444;13.578;2023-08-31T00:27:26;5.07;;;3.22;;
22040;SDS011;11184;52.444;13.578;2023-08-31T00:30:13;4.00;;;3.70;;
22040;SDS011;11184;52.444;13.578;2023-08-31T00:32:58;4.35;;;4.00;;
22040;SDS011;11184;52.444;13.578;2023-08-31T00:35:44;4.05;;;3.75;;
22040;SDS011;11184;52.444;13.578;2023-08-31T00:38:32;8.80;;;4.35;;
22040;SDS011;11184;52.444;13.578;2023-08-31T00:41:16;4.03;;;3.70;;
22040;SDS011;11184;52.444;13.578;2023-08-31T00:44:01;3.85;;;3.60;;
22040;SDS011;11184;52.444;13.578;2023-08-31T00:46:47;4.40;;;4.10;;
22040;SDS011;11184;52.444;13.578;2023-08-31T00:49:32;4.18;;;3.88;;
22040;SDS011;11184;52.444;13.578;2023-08-31T00:52:18;3.75;;;3.42;;
22040;SDS011;11184;52.444;13.578;2023-08-31T00:55:03;4.22;;;3.85;;
22040;SDS011;11184;52.444;13.578;2023-08-31T00:57:48;3.88;;;3.58;;
22040;SDS011;11184;52.444;13.578;2023-08-31T01:03:31;4.35;;;3.97;;
22040;SDS011;11184;52.444;13.578;2023-08-31T01:09:33;5.07;;;4.18;;
22040;SDS011;11184;52.444;13.578;2023-08-31T01:15:24;4.40;;;4.10;;
22040;SDS011;11184;52.444;13.578;2023-08-31T01:18:10;5.18;;;4.05;;
22040;SDS011;11184;52.444;13.578;2023-08-31T01:21:05;4.55;;;3.85;;
22040;SDS011;11184;52.444;13.578;2023-08-31T01:23:56;6.78;;;4.57;;
22040;SDS011;11184;52.444;13.578;2023-08-31T01:26:42;4.55;;;4.25;;
22040;SDS011;11184;52.444;13.578;2023-08-31T01:29:27;4.68;;;4.25;;
22040;SDS011;11184;52.444;13.578;2023-08-31T01:32:14;4.63;;;4.32;;
22040;SDS011;11184;52.444;13.578;2023-08-31T01:34:59;11.73;;;4.18;;
22040;SDS011;11184;52.444;13.578;2023-08-31T01:37:46;4.80;;;3.83;;
22040;SDS011;11184;52.444;13.578;2023-08-31T01:43:16;3.97;;;3.67;;
22040;SDS011;11184;52.444;13.578;2023-08-31T01:46:02;3.72;;;3.45;;
22040;SDS011;11184;52.444;13.578;2023-08-31T01:48:47;3.53;;;3.22;;
22040;SDS011;11184;52.444;13.578;2023-08-31T01:51:31;4.82;;;3.65;;
22040;SDS011;11184;52.444;13.578;2023-08-31T01:54:16;3.17;;;2.88;;
22040;SDS011;11184;52.444;13.578;2023-08-31T01:57:01;3.42;;;3.13;;
22040;SDS011;11184;52.444;13.578;2023-08-31T01:59:46;3.38;;;2.92;;
22040;SDS011;11184;52.444;13.578;2023-08-31T02:02:31;2.85;;;2.65;;
22040;SDS011;11184;52.444;13.578;2023-08-31T02:05:16;3.03;;;2.72;;
22040;SDS011;11184;52.444;13.578;2023-08-31T02:08:00;3.90;;;2.75;;
22040;SDS011;11184;52.444;13.578;2023-08-31T02:10:48;3.38;;;3.08;;
22040;SDS011;11184;52.444;13.578;2023-08-31T02:13:33;3.85;;;3.42;;
22040;SDS011;11184;52.444;13.578;2023-08-31T02:16:17;3.90;;;3.22;;
22040;SDS011;11184;52.444;13.578;2023-08-31T02:19:02;4.10;;;3.70;;
22040;SDS011;11184;52.444;13.578;2023-08-31T02:21:47;3.88;;;2.95;;
22040;SDS011;11184;52.444;13.578;2023-08-31T02:24:31;3.60;;;3.30;;
22040;SDS011;11184;52.444;13.578;2023-08-31T02:27:16;2.95;;;2.42;;
22040;SDS011;11184;52.444;13.578;2023-08-31T02:30:00;2.58;;;2.35;;
22040;SDS011;11184;52.444;13.578;2023-08-31T02:32:48;2.72;;;2.53;;
22040;SDS011;11184;52.444;13.578;2023-08-31T02:35:33;2.75;;;2.47;;
22040;SDS011;11184;52.444;13.578;2023-08-31T02:38:17;4.28;;;2.70;;
22040;SDS011;11184;52.444;13.578;2023-08-31T02:41:02;2.85;;;2.50;;
22040;SDS011;11184;52.444;13.578;2023-08-31T02:43:47;5.40;;;2.25;;
22040;SDS011;11184;52.444;13.578;2023-08-31T02:46:34;2.83;;;2.63;;
22040;SDS011;11184;52.444;13.578;2023-08-31T02:49:18;2.92;;;2.28;;
22040;SDS011;11184;52.444;13.578;2023-08-31T02:52:03;2.78;;;2.10;;
22040;SDS011;11184;52.444;13.578;2023-08-31T02:54:48;2.38;;;2.17;;
22040;SDS011;11184;52.444;13.578;2023-08-31T02:57:33;2.10;;;1.67;;
22040;SDS011;11184;52.444;13.578;2023-08-31T03:00:17;2.03;;;1.80;;
22040;SDS011;11184;52.444;13.578;2023-08-31T03:03:05;3.53;;;2.22;;
22040;SDS011;11184;52.444;13.578;2023-08-31T03:05:54;3.22;;;1.55;;
22040;SDS011;11184;52.444;13.578;2023-08-31T03:08:40;3.40;;;2.38;;
22040;SDS011;11184;52.444;13.578;2023-08-31T03:11:25;3.30;;;2.10;;
22040;SDS011;11184;52.444;13.578;2023-08-31T03:14:10;2.33;;;2.13;;
22040;SDS011;11184;52.444;13.578;2023-08-31T03:16:54;2.47;;;2.08;;
22040;SDS011;11184;52.444;13.578;2023-08-31T03:19:39;2.58;;;2.30;;
22040;SDS011;11184;52.444;13.578;2023-08-31T03:22:23;2.85;;;2.08;;
22040;SDS011;11184;52.444;13.578;2023-08-31T03:25:08;3.10;;;2.30;;
22040;SDS011;11184;52.444;13.578;2023-08-31T03:27:52;4.22;;;2.72;;
22040;SDS011;11184;52.444;13.578;2023-08-31T03:30:37;2.20;;;2.00;;
22040;SDS011;11184;52.444;13.578;2023-08-31T03:33:22;2.45;;;1.63;;
22040;SDS011;11184;52.444;13.578;2023-08-31T03:36:06;3.88;;;2.22;;
22040;SDS011;11184;52.444;13.578;2023-08-31T03:38:51;1.90;;;1.70;;
22040;SDS011;11184;52.444;13.578;2023-08-31T03:41:36;2.67;;;2.33;;
22040;SDS011;11184;52.444;13.578;2023-08-31T03:44:21;3.15;;;2.35;;
22040;SDS011;11184;52.444;13.578;2023-08-31T03:47:05;3.72;;;2.63;;
22040;SDS011;11184;52.444;13.578;2023-08-31T03:49:50;3.05;;;2.15;;
22040;SDS011;11184;52.444;13.578;2023-08-31T03:52:35;2.90;;;2.50;;
22040;SDS011;11184;52.444;13.578;2023-08-31T03:55:20;2.17;;;1.98;;
22040;SDS011;11184;52.444;13.578;2023-08-31T03:58:04;2.15;;;1.95;;
22040;SDS011;11184;52.444;13.578;2023-08-31T04:00:49;5.68;;;2.70;;
22040;SDS011;11184;52.444;13.578;2023-08-31T04:03:34;4.22;;;2.50;;
22040;SDS011;11184;52.444;13.578;2023-08-31T04:06:19;2.33;;;2.08;;
22040;SDS011;11184;52.444;13.578;2023-08-31T04:09:03;2.75;;;2.33;;
22040;SDS011;11184;52.444;13.578;2023-08-31T04:11:48;3.10;;;2.75;;
22040;SDS011;11184;52.444;13.578;2023-08-31T04:14:32;2.08;;;1.90;;
22040;SDS011;11184;52.444;13.578;2023-08-31T04:17:17;3.60;;;3.30;;
22040;SDS011;11184;52.444;13.578;2023-08-31T04:20:01;2.63;;;2.42;;
22040;SDS011;11184;52.444;13.578;2023-08-31T04:22:49;3.42;;;2.83;;
22040;SDS011;11184;52.444;13.578;2023-08-31T04:25:34;3.95;;;2.83;;
22040;SDS011;11184;52.444;13.578;2023-08-31T04:28:19;6.45;;;3.30;;
22040;SDS011;11184;52.444;13.578;2023-08-31T04:31:06;3.67;;;3.40;;
22040;SDS011;11184;52.444;13.578;2023-08-31T04:33:51;3.83;;;2.95;;
22040;SDS011;11184;52.444;13.578;2023-08-31T04:36:39;3.60;;;3.30;;
22040;SDS011;11184;52.444;13.578;2023-08-31T04:39:23;5.40;;;4.20;;
22040;SDS011;11184;52.444;13.578;2023-08-31T04:42:09;5.18;;;4.70;;
22040;SDS011;11184;52.444;13.578;2023-08-31T04:44:53;4.70;;;4.30;;
22040;SDS011;11184;52.444;13.578;2023-08-31T04:47:38;4.82;;;4.43;;
22040;SDS011;11184;52.444;13.578;2023-08-31T04:50:22;6.20;;;4.15;;
22040;SDS011;11184;52.444;13.578;2023-08-31T04:53:07;8.60;;;4.60;;
22040;SDS011;11184;52.444;13.578;2023-08-31T04:55:52;6.18;;;4.35;;
22040;SDS011;11184;52.444;13.578;2023-08-31T04:58:36;4.05;;;3.22;;
22040;SDS011;11184;52.444;13.578;2023-08-31T05:01:21;4.88;;;4.47;;
22040;SDS011;11184;52.444;13.578;2023-08-31T05:04:06;4.35;;;3.85;;
22040;SDS011;11184;52.444;13.578;2023-08-31T05:06:51;5.70;;;4.43;;
22040;SDS011;11184;52.444;13.578;2023-08-31T05:09:35;6.13;;;4.32;;
22040;SDS011;11184;52.444;13.578;2023-08-31T05:12:20;6.93;;;6.22;;
22040;SDS011;11184;52.444;13.578;2023-08-31T05:15:04;6.38;;;4.82;;
22040;SDS011;11184;52.444;13.578;2023-08-31T05:17:49;6.55;;;5.90;;
22040;SDS011;11184;52.444;13.578;2023-08-31T05:20:34;5.53;;;5.13;;
22040;SDS011;11184;52.444;13.578;2023-08-31T05:23:19;7.30;;;5.43;;
22040;SDS011;11184;52.444;13.578;2023-08-31T05:26:04;5.85;;;5.43;;
22040;SDS011;11184;52.444;13.578;2023-08-31T05:28:48;5.00;;;4.50;;
22040;SDS011;11184;52.444;13.578;2023-08-31T05:31:33;5.80;;;5.32;;
22040;SDS011;11184;52.444;13.578;2023-08-31T05:34:21;5.47;;;4.97;;
22040;SDS011;11184;52.444;13.578;2023-08-31T05:37:06;6.75;;;5.35;;
22040;SDS011;11184;52.444;13.578;2023-08-31T05:39:51;5.95;;;4.75;;
22040;SDS011;11184;52.444;13.578;2023-08-31T05:42:36;6.28;;;4.45;;
22040;SDS011;11184;52.444;13.578;2023-08-31T05:45:21;4.57;;;4.18;;
22040;SDS011;11184;52.444;13.578;2023-08-31T05:48:07;5.05;;;4.20;;
22040;SDS011;11184;52.444;13.578;2023-08-31T05:50:52;6.20;;;4.28;;
22040;SDS011;11184;52.444;13.578;2023-08-31T05:53:37;4.80;;;4.35;;
22040;SDS011;11184;52.444;13.578;2023-08-31T05:56:22;6.07;;;5.47;;
22040;SDS011;11184;52.444;13.578;2023-08-31T05:59:07;7.00;;;6.32;;
22040;SDS011;11184;52.444;13.578;2023-08-31T06:01:51;8.63;;;6.13;;
22040;SDS011;11184;52.444;13.578;2023-08-31T06:04:36;6.35;;;5.80;;
22040;SDS011;11184;52.444;13.578;2023-08-31T06:07:21;8.75;;;7.15;;
22040;SDS011;11184;52.444;13.578;2023-08-31T06:10:06;8.07;;;6.57;;
22040;SDS011;11184;52.444;13.578;2023-08-31T06:12:50;6.95;;;6.10;;
22040;SDS011;11184;52.444;13.578;2023-08-31T06:15:35;7.22;;;6.50;;
22040;SDS011;11184;52.444;13.578;2023-08-31T06:18:19;7.55;;;6.85;;
22040;SDS011;11184;52.444;13.578;2023-08-31T06:21:04;7.55;;;6.38;;
22040;SDS011;11184;52.444;13.578;2023-08-31T06:23:49;9.63;;;6.00;;
22040;SDS011;11184;52.444;13.578;2023-08-31T06:26:33;6.47;;;5.97;;
22040;SDS011;11184;52.444;13.578;2023-08-31T06:29:18;8.00;;;6.30;;
22040;SDS011;11184;52.444;13.578;2023-08-31T06:32:03;12.27;;;6.72;;
22040;SDS011;11184;52.444;13.578;2023-08-31T06:34:48;6.82;;;6.13;;
22040;SDS011;11184;52.444;13.578;2023-08-31T06:37:32;6.97;;;5.65;;
22040;SDS011;11184;52.444;13.578;2023-08-31T06:40:17;6.93;;;6.25;;
22040;SDS011;11184;52.444;13.578;2023-08-31T06:43:02;6.72;;;6.10;;
22040;SDS011;11184;52.444;13.578;2023-08-31T06:45:47;7.38;;;6.72;;
22040;SDS011;11184;52.444;13.578;2023-08-31T06:48:31;7.47;;;5.88;;
22040;SDS011;11184;52.444;13.578;2023-08-31T06:51:17;7.43;;;6.72;;
22040;SDS011;11184;52.444;13.578;2023-08-31T06:54:01;26.48;;;23.75;;
22040;SDS011;11184;52.444;13.578;2023-08-31T06:56:52;8.20;;;5.65;;
22040;SDS011;11184;52.444;13.578;2023-08-31T06:59:37;6.53;;;5.68;;
22040;SDS011;11184;52.444;13.578;2023-08-31T07:02:21;6.18;;;5.57;;
22040;SDS011;11184;52.444;13.578;2023-08-31T07:05:07;8.23;;;5.75;;
22040;SDS011;11184;52.444;13.578;2023-08-31T07:07:52;10.55;;;5.75;;
22040;SDS011;11184;52.444;13.578;2023-08-31T07:10:37;12.00;;;5.57;;
22040;SDS011;11184;52.444;13.578;2023-08-31T07:13:22;6.38;;;5.78;;
22040;SDS011;11184;52.444;13.578;2023-08-31T07:16:07;6.72;;;6.05;;
22040;SDS011;11184;52.444;13.578;2023-08-31T07:18:51;9.05;;;5.75;;
22040;SDS011;11184;52.444;13.578;2023-08-31T07:21:36;6.68;;;5.53;;
22040;SDS011;11184;52.444;13.578;2023-08-31T07:24:22;7.53;;;6.65;;
22040;SDS011;11184;52.444;13.578;2023-08-31T07:27:07;7.22;;;6.60;;
22040;SDS011;11184;52.444;13.578;2023-08-31T07:29:54;6.68;;;6.03;;
22040;SDS011;11184;52.444;13.578;2023-08-31T07:32:38;6.90;;;5.80;;
22040;SDS011;11184;52.444;13.578;2023-08-31T07:35:23;13.73;;;7.82;;
22040;SDS011;11184;52.444;13.578;2023-08-31T07:38:08;9.93;;;6.97;;
22040;SDS011;11184;52.444;13.578;2023-08-31T07:40:53;6.80;;;6.00;;
22040;SDS011;11184;52.444;13.578;2023-08-31T07:43:37;7.78;;;6.70;;
22040;SDS011;11184;52.444;13.578;2023-08-31T07:46:22;11.15;;;7.45;;
22040;SDS011;11184;52.444;13.578;2023-08-31T07:49:06;6.53;;;5.88;;
22040;SDS011;11184;52.444;13.578;2023-08-31T07:51:51;6.95;;;6.28;;
22040;SDS011;11184;52.444;13.578;2023-08-31T07:54:35;7.45;;;6.65;;
22040;SDS011;11184;52.444;13.578;2023-08-31T07:57:20;7.75;;;6.28;;
22040;SDS011;11184;52.444;13.578;2023-08-31T08:00:05;7.00;;;6.30;;
22040;SDS011;11184;52.444;13.578;2023-08-31T08:02:50;6.65;;;5.70;;
22040;SDS011;11184;52.444;13.578;2023-08-31T08:05:35;6.70;;;5.60;;
22040;SDS011;11184;52.444;13.578;2023-08-31T08:08:20;6.00;;;5.40;;
22040;SDS011;11184;52.444;13.578;2023-08-31T08:11:05;4.95;;;4.35;;
22040;SDS011;11184;52.444;13.578;2023-08-31T08:13:50;7.47;;;6.40;;
22040;SDS011;11184;52.444;13.578;2023-08-31T08:16:34;9.07;;;5.20;;
22040;SDS011;11184;52.444;13.578;2023-08-31T08:19:23;4.82;;;4.43;;
22040;SDS011;11184;52.444;13.578;2023-08-31T08:22:08;4.80;;;4.20;;
22040;SDS011;11184;52.444;13.578;2023-08-31T08:24:53;4.97;;;4.57;;
22040;SDS011;11184;52.444;13.578;2023-08-31T08:27:37;7.25;;;4.63;;
22040;SDS011;11184;52.444;13.578;2023-08-31T08:30:22;4.88;;;3.72;;
22040;SDS011;11184;52.444;13.578;2023-08-31T08:33:08;3.83;;;3.53;;
22040;SDS011;11184;52.444;13.578;2023-08-31T08:35:55;4.97;;;4.13;;
22040;SDS011;11184;52.444;13.578;2023-08-31T08:38:40;6.45;;;4.00;;
22040;SDS011;11184;52.444;13.578;2023-08-31T08:41:25;6.00;;;3.40;;
22040;SDS011;11184;52.444;13.578;2023-08-31T08:44:12;6.65;;;3.33;;
22040;SDS011;11184;52.444;13.578;2023-08-31T08:46:57;3.35;;;3.00;;
22040;SDS011;11184;52.444;13.578;2023-08-31T08:49:43;5.78;;;2.58;;
22040;SDS011;11184;52.444;13.578;2023-08-31T08:52:28;6.45;;;2.53;;
22040;SDS011;11184;52.444;13.578;2023-08-31T08:55:13;7.05;;;3.00;;
22040;SDS011;11184;52.444;13.578;2023-08-31T08:57:58;6.18;;;2.50;;
22040;SDS011;11184;52.444;13.578;2023-08-31T09:00:47;4.07;;;1.85;;
22040;SDS011;11184;52.444;13.578;2023-08-31T09:03:32;8.90;;;2.53;;
22040;SDS011;11184;52.444;13.578;2023-08-31T09:06:16;3.72;;;1.98;;
22040;SDS011;11184;52.444;13.578;2023-08-31T09:09:01;2.97;;;1.65;;
22040;SDS011;11184;52.444;13.578;2023-08-31T09:11:47;7.22;;;1.75;;
22040;SDS011;11184;52.444;13.578;2023-08-31T09:14:31;4.70;;;1.30;;
22040;SDS011;11184;52.444;13.578;2023-08-31T09:17:16;4.97;;;1.60;;
22040;SDS011;11184;52.444;13.578;2023-08-31T09:20:01;3.30;;;1.08;;
22040;SDS011;11184;52.444;13.578;2023-08-31T09:22:49;6.30;;;1.23;;
22040;SDS011;11184;52.444;13.578;2023-08-31T09:25:41;2.75;;;1.40;;
22040;SDS011;11184;52.444;13.578;2023-08-31T09:28:27;1.98;;;1.48;;
22040;SDS011;11184;52.444;13.578;2023-08-31T09:31:12;6.05;;;1.10;;
22040;SDS011;11184;52.444;13.578;2023-08-31T09:33:57;3.88;;;1.35;;
22040;SDS011;11184;52.444;13.578;2023-08-31T09:36:41;4.57;;;1.20;;
22040;SDS011;11184;52.444;13.578;2023-08-31T09:39:26;1.92;;;0.93;;
22040;SDS011;11184;52.444;13.578;2023-08-31T09:42:20;3.38;;;1.63;;
22040;SDS011;11184;52.444;13.578;2023-08-31T09:45:04;3.03;;;1.10;;
22040;SDS011;11184;52.444;13.578;2023-08-31T09:47:49;3.35;;;1.23;;
22040;SDS011;11184;52.444;13.578;2023-08-31T09:50:34;2.17;;;1.08;;
22040;SDS011;11184;52.444;13.578;2023-08-31T09:53:20;1.73;;;1.10;;
22040;SDS011;11184;52.444;13.578;2023-08-31T09:56:05;2.17;;;1.20;;
22040;SDS011;11184;52.444;13.578;2023-08-31T09:58:50;2.42;;;0.90;;
22040;SDS011;11184;52.444;13.578;2023-08-31T10:01:35;3.95;;;1.33;;
22040;SDS011;11184;52.444;13.578;2023-08-31T10:04:20;4.72;;;2.17;;
22040;SDS011;11184;52.444;13.578;2023-08-31T10:07:05;1.85;;;1.45;;
22040;SDS011;11184;52.444;13.578;2023-08-31T10:09:50;3.35;;;1.40;;
22040;SDS011;11184;52.444;13.578;2023-08-31T10:12:36;7.20;;;1.70;;
22040;SDS011;11184;52.444;13.578;2023-08-31T10:15:21;4.55;;;1.50;;
22040;SDS011;11184;52.444;13.578;2023-08-31T10:18:07;3.17;;;1.00;;
22040;SDS011;11184;52.444;13.578;2023-08-31T10:20:51;4.35;;;1.30;;
22040;SDS011;11184;52.444;13.578;2023-08-31T10:23:37;5.30;;;1.38;;
22040;SDS011;11184;52.444;13.578;2023-08-31T10:26:29;2.88;;;1.50;;
22040;SDS011;11184;52.444;13.578;2023-08-31T10:29:27;4.55;;;1.48;;
22040;SDS011;11184;52.444;13.578;2023-08-31T10:32:19;4.95;;;1.02;;
22040;SDS011;11184;52.444;13.578;2023-08-31T10:35:06;4.03;;;1.60;;
22040;SDS011;11184;52.444;13.578;2023-08-31T10:37:51;3.50;;;1.58;;
22040;SDS011;11184;52.444;13.578;2023-08-31T10:40:35;5.75;;;1.15;;
22040;SDS011;11184;52.444;13.578;2023-08-31T10:43:20;3.65;;;1.10;;
22040;SDS011;11184;52.444;13.578;2023-08-31T10:46:14;2.67;;;0.68;;
22040;SDS011;11184;52.444;13.578;2023-08-31T10:51:57;2.22;;;0.50;;
22040;SDS011;11184;52.444;13.578;2023-08-31T10:54:43;3.47;;;0.70;;
22040;SDS011;11184;52.444;13.578;2023-08-31T10:57:31;2.35;;;0.77;;
22040;SDS011;11184;52.444;13.578;2023-08-31T11:00:20;7.75;;;1.58;;
22040;SDS011;11184;52.444;13.578;2023-08-31T11:03:20;6.80;;;1.60;;
22040;SDS011;11184;52.444;13.578;2023-08-31T11:06:05;1.05;;;0.50;;
22040;SDS011;11184;52.444;13.578;2023-08-31T11:08:55;4.80;;;1.42;;
22040;SDS011;11184;52.444;13.578;2023-08-31T11:11:40;5.30;;;2.42;;
22040;SDS011;11184;52.444;13.578;2023-08-31T11:14:24;2.08;;;1.52;;
22040;SDS011;11184;52.444;13.578;2023-08-31T11:17:09;1.10;;;0.77;;
22040;SDS011;11184;52.444;13.578;2023-08-31T11:19:55;3.65;;;1.42;;
22040;SDS011;11184;52.444;13.578;2023-08-31T11:22:41;1.95;;;1.10;;
22040;SDS011;11184;52.444;13.578;2023-08-31T11:25:25;3.08;;;1.33;;
22040;SDS011;11184;52.444;13.578;2023-08-31T11:28:10;6.88;;;1.48;;
22040;SDS011;11184;52.444;13.578;2023-08-31T11:30:55;1.35;;;0.90;;
22040;SDS011;11184;52.444;13.578;2023-08-31T11:33:39;2.80;;;1.20;;
22040;SDS011;11184;52.444;13.578;2023-08-31T11:36:25;2.63;;;0.90;;
22040;SDS011;11184;52.444;13.578;2023-08-31T11:39:10;1.58;;;0.80;;
22040;SDS011;11184;52.444;13.578;2023-08-31T11:41:54;5.60;;;0.95;;
22040;SDS011;11184;52.444;13.578;2023-08-31T11:44:39;3.35;;;1.20;;
22040;SDS011;11184;52.444;13.578;2023-08-31T11:47:24;2.90;;;2.45;;
22040;SDS011;11184;52.444;13.578;2023-08-31T11:50:08;7.95;;;1.25;;
22040;SDS011;11184;52.444;13.578;2023-08-31T11:52:54;1.67;;;0.98;;
22040;SDS011;11184;52.444;13.578;2023-08-31T11:55:48;1.05;;;0.70;;
22040;SDS011;11184;52.444;13.578;2023-08-31T11:58:39;3.70;;;1.55;;
22040;SDS011;11184;52.444;13.578;2023-08-31T12:01:26;2.45;;;1.45;;
22040;SDS011;11184;52.444;13.578;2023-08-31T12:04:15;9.27;;;1.60;;
22040;SDS011;11184;52.444;13.578;2023-08-31T12:07:01;2.15;;;1.38;;
22040;SDS011;11184;52.444;13.578;2023-08-31T12:09:48;2.80;;;1.38;;
22040;SDS011;11184;52.444;13.578;2023-08-31T12:12:33;1.55;;;1.20;;
22040;SDS011;11184;52.444;13.578;2023-08-31T12:15:18;2.80;;;0.90;;
22040;SDS011;11184;52.444;13.578;2023-08-31T12:18:08;2.42;;;1.48;;
22040;SDS011;11184;52.444;13.578;2023-08-31T12:20:53;2.75;;;0.80;;
22040;SDS011;11184;52.444;13.578;2023-08-31T12:23:38;0.85;;;0.52;;
22040;SDS011;11184;52.444;13.578;2023-08-31T12:26:23;1.10;;;0.70;;
22040;SDS011;11184;52.444;13.578;2023-08-31T12:29:07;2.03;;;0.70;;
22040;SDS011;11184;52.444;13.578;2023-08-31T12:31:52;1.40;;;0.75;;
22040;SDS011;11184;52.444;13.578;2023-08-31T12:34:36;2.92;;;0.90;;
22040;SDS011;11184;52.444;13.578;2023-08-31T12:37:21;2.85;;;1.08;;
22040;SDS011;11184;52.444;13.578;2023-08-31T12:40:05;2.40;;;1.15;;
22040;SDS011;11184;52.444;13.578;2023-08-31T12:42:53;2.75;;;1.38;;
22040;SDS011;11184;52.444;13.578;2023-08-31T12:45:37;8.35;;;1.02;;
22040;SDS011;11184;52.444;13.578;2023-08-31T12:48:22;2.83;;;1.33;;
22040;SDS011;11184;52.444;13.578;2023-08-31T12:51:07;4.07;;;1.13;;
22040;SDS011;11184;52.444;13.578;2023-08-31T12:53:51;3.35;;;1.38;;
22040;SDS011;11184;52.444;13.578;2023-08-31T12:56:36;2.08;;;1.20;;
22040;SDS011;11184;52.444;13.578;2023-08-31T12:59:21;1.92;;;1.45;;
22040;SDS011;11184;52.444;13.578;2023-08-31T13:02:05;8.10;;;2.17;;
22040;SDS011;11184;52.444;13.578;2023-08-31T13:04:54;1.58;;;1.20;;
22040;SDS011;11184;52.444;13.578;2023-08-31T13:07:38;2.22;;;1.40;;
22040;SDS011;11184;52.444;13.578;2023-08-31T13:10:24;4.15;;;1.15;;
22040;SDS011;11184;52.444;13.578;2023-08-31T13:13:09;1.75;;;1.13;;
22040;SDS011;11184;52.444;13.578;2023-08-31T13:15:54;3.22;;;1.35;;
22040;SDS011;11184;52.444;13.578;2023-08-31T13:18:38;3.17;;;1.42;;
22040;SDS011;11184;52.444;13.578;2023-08-31T13:21:23;0.85;;;0.77;;
22040;SDS011;11184;52.444;13.578;2023-08-31T13:24:07;2.45;;;0.95;;
22040;SDS011;11184;52.444;13.578;2023-08-31T13:26:52;1.42;;;0.98;;
22040;SDS011;11184;52.444;13.578;2023-08-31T13:29:36;1.17;;;0.73;;
22040;SDS011;11184;52.444;13.578;2023-08-31T13:32:21;0.77;;;0.50;;
22040;SDS011;11184;52.444;13.578;2023-08-31T13:35:06;2.88;;;0.70;;
22040;SDS011;11184;52.444;13.578;2023-08-31T13:37:51;0.93;;;0.55;;
22040;SDS011;11184;52.444;13.578;2023-08-31T13:40:36;0.52;;;0.52;;
22040;SDS011;11184;52.444;13.578;2023-08-31T13:43:20;1.27;;;0.77;;
22040;SDS011;11184;52.444;13.578;2023-08-31T13:46:06;1.33;;;1.05;;
22040;SDS011;11184;52.444;13.578;2023-08-31T13:48:51;1.13;;;0.73;;
22040;SDS011;11184;52.444;13.578;2023-08-31T13:51:35;2.95;;;1.10;;
22040;SDS011;11184;52.444;13.578;2023-08-31T13:54:20;1.30;;;1.10;;
22040;SDS011;11184;52.444;13.578;2023-08-31T13:57:05;1.50;;;0.77;;
22040;SDS011;11184;52.444;13.578;2023-08-31T13:59:49;2.67;;;0.50;;
22040;SDS011;11184;52.444;13.578;2023-08-31T14:02:34;1.98;;;0.93;;
22040;SDS011;11184;52.444;13.578;2023-08-31T14:05:20;0.95;;;0.70;;
22040;SDS011;11184;52.444;13.578;2023-08-31T14:08:04;1.60;;;0.50;;
22040;SDS011;11184;52.444;13.578;2023-08-31T14:10:49;2.53;;;0.65;;
22040;SDS011;11184;52.444;13.578;2023-08-31T14:13:35;1.65;;;0.65;;
22040;SDS011;11184;52.444;13.578;2023-08-31T14:16:20;3.08;;;0.68;;
22040;SDS011;11184;52.444;13.578;2023-08-31T14:19:04;0.57;;;0.57;;
22040;SDS011;11184;52.444;13.578;2023-08-31T14:21:49;3.13;;;1.45;;
22040;SDS011;11184;52.444;13.578;2023-08-31T14:24:36;6.03;;;1.98;;
22040;SDS011;11184;52.444;13.578;2023-08-31T14:27:21;2.05;;;1.05;;
22040;SDS011;11184;52.444;13.578;2023-08-31T14:30:07;2.28;;;1.30;;
22040;SDS011;11184;52.444;13.578;2023-08-31T14:32:52;2.42;;;0.90;;
22040;SDS011;11184;52.444;13.578;2023-08-31T14:35:37;1.05;;;0.80;;
22040;SDS011;11184;52.444;13.578;2023-08-31T14:38:22;1.48;;;0.75;;
22040;SDS011;11184;52.444;13.578;2023-08-31T14:41:07;2.33;;;0.90;;
22040;SDS011;11184;52.444;13.578;2023-08-31T14:43:52;0.95;;;0.65;;
22040;SDS011;11184;52.444;13.578;2023-08-31T14:46:37;1.30;;;1.00;;
22040;SDS011;11184;52.444;13.578;2023-08-31T14:49:21;1.30;;;0.77;;
22040;SDS011;11184;52.444;13.578;2023-08-31T14:52:08;1.60;;;0.82;;
22040;SDS011;11184;52.444;13.578;2023-08-31T14:54:53;3.15;;;1.05;;
22040;SDS011;11184;52.444;13.578;2023-08-31T14:57:37;3.95;;;0.65;;
22040;SDS011;11184;52.444;13.578;2023-08-31T15:00:25;2.15;;;0.93;;
22040;SDS011;11184;52.444;13.578;2023-08-31T15:03:10;1.02;;;0.52;;
22040;SDS011;11184;52.444;13.578;2023-08-31T15:05:55;1.38;;;0.70;;
22040;SDS011;11184;52.444;13.578;2023-08-31T15:08:40;1.77;;;0.70;;
22040;SDS011;11184;52.444;13.578;2023-08-31T15:11:28;3.88;;;0.60;;
22040;SDS011;11184;52.444;13.578;2023-08-31T15:14:13;0.85;;;0.50;;
22040;SDS011;11184;52.444;13.578;2023-08-31T15:16:57;2.05;;;0.75;;
22040;SDS011;11184;52.444;13.578;2023-08-31T15:19:42;1.23;;;0.60;;
22040;SDS011;11184;52.444;13.578;2023-08-31T15:22:26;4.13;;;0.50;;
22040;SDS011;11184;52.444;13.578;2023-08-31T15:25:11;3.15;;;2.83;;
22040;SDS011;11184;52.444;13.578;2023-08-31T15:27:56;3.78;;;0.80;;
22040;SDS011;11184;52.444;13.578;2023-08-31T15:30:40;2.67;;;0.50;;
22040;SDS011;11184;52.444;13.578;2023-08-31T15:33:25;0.47;;;0.40;;
22040;SDS011;11184;52.444;13.578;2023-08-31T15:36:09;1.17;;;0.70;;
22040;SDS011;11184;52.444;13.578;2023-08-31T15:38:54;1.67;;;0.70;;
22040;SDS011;11184;52.444;13.578;2023-08-31T15:41:39;1.85;;;0.88;;
22040;SDS011;11184;52.444;13.578;2023-08-31T15:44:24;6.43;;;0.77;;
22040;SDS011;11184;52.444;13.578;2023-08-31T15:47:09;1.48;;;0.82;;
22040;SDS011;11184;52.444;13.578;2023-08-31T15:49:54;1.83;;;0.55;;
22040;SDS011;11184;52.444;13.578;2023-08-31T15:52:40;0.90;;;0.40;;
22040;SDS011;11184;52.444;13.578;2023-08-31T15:55:24;2.03;;;0.75;;
22040;SDS011;11184;52.444;13.578;2023-08-31T15:58:09;1.05;;;0.52;;
22040;SDS011;11184;52.444;13.578;2023-08-31T16:00:53;2.42;;;0.70;;
22040;SDS011;11184;52.444;13.578;2023-08-31T16:03:44;1.17;;;0.50;;
22040;SDS011;11184;52.444;13.578;2023-08-31T16:06:28;1.17;;;0.50;;
22040;SDS011;11184;52.444;13.578;2023-08-31T16:09:13;1.45;;;0.70;;
22040;SDS011;11184;52.444;13.578;2023-08-31T16:11:58;2.15;;;1.17;;
22040;SDS011;11184;52.444;13.578;2023-08-31T16:14:46;3.97;;;1.23;;
22040;SDS011;11184;52.444;13.578;2023-08-31T16:17:32;1.45;;;0.90;;
22040;SDS011;11184;52.444;13.578;2023-08-31T16:20:16;1.02;;;0.88;;
22040;SDS011;11184;52.444;13.578;2023-08-31T16:23:02;2.38;;;0.70;;
22040;SDS011;11184;52.444;13.578;2023-08-31T16:25:47;1.92;;;1.02;;
22040;SDS011;11184;52.444;13.578;2023-08-31T16:28:32;3.60;;;1.13;;
22040;SDS011;11184;52.444;13.578;2023-08-31T16:31:17;1.58;;;1.00;;
22040;SDS011;11184;52.444;13.578;2023-08-31T16:34:02;4.43;;;0.88;;
22040;SDS011;11184;52.444;13.578;2023-08-31T16:36:46;2.03;;;1.05;;